Time;durP1;ratioP1;P1;durP2;ratioP2;P2;SDS_P1;SDS_P2;PMS_P1;PMS_P2;Temp;Humidity;BMP_temperature;BMP_pressure;BME280_temperature;BME280_humidity;BME280_pressure;Samples;Min_cycle;Max_cycle;Signal;HPM_P1;HPM_P2
2021/05/19 04:00:53;;;;;;;17.92;13.98;;;7.90;99.90;;;;;;5726923;23;20261;-75
2021/05/19 04:03:20;;;;;;;16.95;13.95;;;7.90;99.90;;;;;;4934688;29;20217;-75
2021/05/19 04:05:46;;;;;;;20.30;13.63;;;7.90;99.90;;;;;;4934105;29;20206;-75
2021/05/19 04:08:12;;;;;;;16.88;13.13;;;8.00;99.90;;;;;;4934868;29;20214;-75
2021/05/19 04:10:38;;;;;;;22.70;14.45;;;8.00;99.90;;;;;;4933234;29;20311;-75
2021/05/19 04:13:05;;;;;;;21.88;14.60;;;8.10;99.90;;;;;;4933667;29;20671;-75
2021/05/19 04:15:33;;;;;;;16.23;13.38;;;8.20;99.90;;;;;;4934346;29;20202;-75
2021/05/19 04:18:00;;;;;;;22.00;15.02;;;8.30;99.90;;;;;;4934632;29;20232;-75
2021/05/19 04:20:26;;;;;;;21.13;14.80;;;8.30;99.90;;;;;;4933807;29;20234;-75
2021/05/19 04:22:53;;;;;;;16.63;13.52;;;8.40;99.90;;;;;;4933562;29;20638;-75
2021/05/19 04:25:19;;;;;;;19.63;14.43;;;8.40;99.90;;;;;;4933996;29;20202;-75
2021/05/19 04:27:45;;;;;;;16.80;14.30;;;8.50;99.90;;;;;;4933317;29;20662;-75
2021/05/19 04:30:13;;;;;;;20.50;14.10;;;8.50;99.90;;;;;;4933833;29;20244;-75
2021/05/19 04:32:39;;;;;;;20.17;14.80;;;8.60;99.90;;;;;;4932963;29;20222;-75
2021/05/19 04:35:08;;;;;;;19.45;14.70;;;8.60;99.90;;;;;;4933741;29;20242;-75
2021/05/19 04:37:35;;;;;;;20.40;15.27;;;8.60;99.90;;;;;;4933953;29;20209;-75
2021/05/19 04:40:01;;;;;;;19.25;14.68;;;8.60;99.90;;;;;;4933516;29;20221;-75
2021/05/19 04:42:27;;;;;;;18.70;14.32;;;8.60;99.90;;;;;;4933109;29;20221;-76
2021/05/19 04:44:53;;;;;;;17.58;13.23;;;8.70;99.90;;;;;;4933641;29;20217;-75
2021/05/19 04:47:20;;;;;;;19.25;15.02;;;8.70;99.90;;;;;;4934257;29;20209;-76
2021/05/19 04:49:46;;;;;;;19.80;13.68;;;8.70;99.90;;;;;;4934226;29;20209;-77
2021/05/19 04:52:13;;;;;;;16.75;13.77;;;8.70;99.90;;;;;;4935361;29;20226;-77
2021/05/19 04:54:39;;;;;;;19.73;15.50;;;9.00;99.90;;;;;;4933957;29;20259;-75
2021/05/19 04:57:06;;;;;;;16.33;13.43;;;9.40;99.90;;;;;;4932702;29;20213;-75
2021/05/19 04:59:32;;;;;;;13.20;11.48;;;10.10;99.90;;;;;;4933390;29;20261;-75
2021/05/19 05:01:58;;;;;;;12.13;10.95;;;10.70;99.90;;;;;;4932993;29;20234;-76
2021/05/19 05:04:24;;;;;;;11.43;10.33;;;11.40;99.90;;;;;;4933154;29;20201;-74
2021/05/19 05:06:50;;;;;;;10.73;9.73;;;12.00;99.90;;;;;;4933119;29;20518;-74
2021/05/19 05:09:17;;;;;;;11.80;10.60;;;12.60;99.90;;;;;;4933958;29;20472;-74
2021/05/19 05:11:43;;;;;;;10.47;9.57;;;13.10;99.90;;;;;;4933251;29;20541;-74
2021/05/19 05:14:10;;;;;;;9.87;9.23;;;13.60;99.90;;;;;;4932844;29;20828;-74
2021/05/19 05:16:36;;;;;;;10.13;9.43;;;13.80;99.90;;;;;;4933755;29;20548;-74
2021/05/19 05:19:06;;;;;;;10.10;9.37;;;14.00;99.90;;;;;;4933927;29;20466;-74
2021/05/19 05:21:33;;;;;;;10.17;9.47;;;14.20;99.90;;;;;;4934303;29;20486;-75
2021/05/19 05:23:59;;;;;;;10.10;9.40;;;14.60;99.90;;;;;;4934072;29;20470;-74
2021/05/19 05:26:27;;;;;;;10.07;9.37;;;14.90;99.90;;;;;;4932585;29;20837;-74
2021/05/19 05:28:53;;;;;;;10.13;9.40;;;14.90;99.90;;;;;;4933944;29;20607;-75
2021/05/19 05:31:20;;;;;;;10.40;9.63;;;14.80;99.90;;;;;;4932818;29;20493;-75
2021/05/19 05:33:47;;;;;;;10.30;9.53;;;14.60;99.90;;;;;;4933223;29;20466;-73
2021/05/19 05:36:13;;;;;;;11.73;10.83;;;14.40;99.90;;;;;;4933475;29;20575;-73
2021/05/19 05:38:40;;;;;;;13.17;12.00;;;14.00;99.90;;;;;;4933672;29;20469;-73
2021/05/19 05:41:07;;;;;;;12.33;11.40;;;13.80;99.90;;;;;;4933180;29;20492;-74
2021/05/19 05:43:34;;;;;;;11.23;10.33;;;13.60;99.90;;;;;;4934209;29;20524;-73
2021/05/19 05:46:00;;;;;;;11.53;10.63;;;13.50;99.90;;;;;;4932516;29;20465;-73
2021/05/19 05:48:27;;;;;;;11.30;10.40;;;13.50;99.90;;;;;;4939792;29;20461;-74
2021/05/19 05:50:53;;;;;;;11.40;10.40;;;13.80;99.90;;;;;;4946357;29;20537;-74
2021/05/19 05:53:19;;;;;;;10.60;9.90;;;14.10;99.90;;;;;;4943982;29;20457;-73
2021/05/19 05:55:46;;;;;;;10.23;9.47;;;14.60;99.90;;;;;;4938335;29;20524;-75
2021/05/19 05:58:12;;;;;;;9.27;8.67;;;15.10;99.90;;;;;;4933395;29;20847;-73
2021/05/19 06:00:39;;;;;;;11.50;10.70;;;15.60;99.90;;;;;;4933488;29;20493;-73
2021/05/19 06:03:06;;;;;;;10.60;9.80;;;16.00;99.90;;;;;;4932968;29;20465;-74
2021/05/19 06:05:33;;;;;;;9.03;8.43;;;16.30;99.90;;;;;;4934755;29;20541;-73
2021/05/19 06:08:02;;;;;;;9.77;9.17;;;16.60;99.90;;;;;;4946747;29;20477;-74
2021/05/19 06:10:29;;;;;;;9.30;8.80;;;16.40;99.90;;;;;;4941905;29;20489;-73
2021/05/19 06:12:55;;;;;;;9.37;8.87;;;16.10;99.90;;;;;;4938684;29;20570;-73
2021/05/19 06:15:21;;;;;;;10.53;9.83;;;15.70;99.90;;;;;;4948699;29;20537;-74
2021/05/19 06:17:48;;;;;;;9.70;9.10;;;15.20;99.90;;;;;;4950557;29;20465;-72
2021/05/19 06:20:15;;;;;;;9.37;8.77;;;14.90;99.90;;;;;;4948743;29;20476;-73
2021/05/19 06:22:41;;;;;;;8.77;8.07;;;14.80;99.90;;;;;;4936930;29;20458;-74
2021/05/19 06:25:09;;;;;;;8.03;7.53;;;14.60;99.90;;;;;;4937170;29;20496;-73
2021/05/19 06:27:35;;;;;;;8.73;8.13;;;14.70;99.90;;;;;;4935702;29;20484;-73
2021/05/19 06:30:03;;;;;;;6.80;6.40;;;15.00;99.90;;;;;;4935897;29;20533;-74
2021/05/19 06:32:29;;;;;;;7.70;7.20;;;15.50;99.90;;;;;;4935369;29;20485;-73
2021/05/19 06:34:56;;;;;;;6.57;6.27;;;16.40;99.90;;;;;;4936118;29;20798;-74
2021/05/19 06:37:22;;;;;;;5.80;5.60;;;17.10;99.90;;;;;;4935776;29;20518;-74
2021/05/19 06:39:48;;;;;;;5.60;5.40;;;17.30;99.90;;;;;;4936108;29;20545;-74
2021/05/19 06:42:15;;;;;;;5.33;5.13;;;17.80;99.90;;;;;;4934729;29;20485;-73
2021/05/19 06:44:41;;;;;;;5.30;5.10;;;18.50;99.90;;;;;;4935572;29;20468;-74
2021/05/19 06:47:07;;;;;;;5.40;5.30;;;19.00;99.90;;;;;;4935385;29;20470;-73
2021/05/19 06:49:33;;;;;;;6.13;5.90;;;18.60;99.90;;;;;;4937091;29;20465;-74
2021/05/19 06:52:00;;;;;;;5.20;5.03;;;18.00;99.90;;;;;;4936109;29;20501;-74
2021/05/19 06:54:26;;;;;;;5.53;5.33;;;18.10;99.90;;;;;;4939881;29;20492;-73
2021/05/19 06:56:53;;;;;;;5.60;5.40;;;18.10;99.90;;;;;;4938395;29;20469;-73
2021/05/19 06:59:22;;;;;;;5.87;5.57;;;18.60;99.90;;;;;;4938371;29;20481;-74
2021/05/19 07:01:48;;;;;;;5.87;5.57;;;18.70;99.90;;;;;;4936885;29;20520;-73
2021/05/19 07:04:18;;;;;;;5.50;5.30;;;18.70;99.90;;;;;;4938800;29;20501;-74
2021/05/19 07:06:46;;;;;;;6.60;6.13;;;18.60;99.90;;;;;;4940291;29;20594;-73
2021/05/19 07:09:18;;;;;;;5.30;5.10;;;18.00;99.90;;;;;;4940231;29;20545;-72
2021/05/19 07:11:45;;;;;;;5.53;5.23;;;17.70;99.90;;;;;;4938196;29;20696;-73
2021/05/19 07:14:16;;;;;;;5.93;5.53;;;17.30;99.90;;;;;;4937943;29;20461;-75
2021/05/19 07:16:49;;;;;;;5.60;5.40;;;17.80;99.90;;;;;;4936658;29;20496;-76
2021/05/19 07:19:16;;;;;;;4.80;4.70;;;18.40;99.90;;;;;;4937657;29;20472;-75
2021/05/19 07:21:42;;;;;;;5.30;5.10;;;18.70;99.90;;;;;;4939017;29;20474;-76
2021/05/19 07:24:11;;;;;;;4.93;4.83;;;19.40;99.90;;;;;;4938962;29;20465;-76
2021/05/19 07:26:41;;;;;;;4.50;4.30;;;19.80;99.90;;;;;;4938028;29;20977;-76
2021/05/19 07:29:07;;;;;;;5.23;5.03;;;19.90;99.90;;;;;;4939199;29;20465;-76
2021/05/19 07:31:34;;;;;;;5.30;5.13;;;19.90;99.90;;;;;;4936360;29;20536;-76
2021/05/19 07:34:00;;;;;;;5.07;4.87;;;19.90;99.90;;;;;;4936212;29;20461;-76
2021/05/19 07:36:27;;;;;;;4.90;4.80;;;20.30;99.90;;;;;;4937688;29;20557;-77
2021/05/19 07:38:54;;;;;;;4.37;4.27;;;20.60;99.90;;;;;;4938587;29;20465;-76
2021/05/19 07:41:21;;;;;;;5.27;5.07;;;20.80;99.90;;;;;;4937028;29;20485;-77
2021/05/19 07:43:48;;;;;;;5.10;4.90;;;20.20;99.90;;;;;;4938607;29;20911;-76
2021/05/19 07:46:14;;;;;;;4.40;4.20;;;20.00;99.90;;;;;;4936343;29;20471;-76
2021/05/19 07:48:40;;;;;;;4.10;4.00;;;20.20;99.90;;;;;;4935397;29;20470;-76
2021/05/19 07:51:07;;;;;;;4.10;4.00;;;20.10;99.90;;;;;;4934516;29;20489;-74
2021/05/19 07:53:33;;;;;;;4.53;4.43;;;20.40;99.90;;;;;;4935676;29;20462;-75
2021/05/19 07:56:03;;;;;;;3.90;3.80;;;19.60;99.90;;;;;;4933939;29;20665;-76
2021/05/19 07:58:33;;;;;;;4.33;4.23;;;19.10;99.90;;;;;;4934798;29;20564;-76
2021/05/19 08:01:08;;;;;;;4.67;4.57;;;18.90;99.90;;;;;;4934254;29;20516;-76
2021/05/19 08:03:35;;;;;;;5.13;4.83;;;18.20;99.90;;;;;;4934770;29;20465;-76
2021/05/19 08:06:01;;;;;;;3.83;3.73;;;17.40;99.90;;;;;;4934112;29;20469;-75
2021/05/19 08:08:27;;;;;;;3.90;3.73;;;16.80;99.90;;;;;;4935232;29;20845;-76
2021/05/19 08:10:55;;;;;;;3.57;3.47;;;17.10;99.90;;;;;;4933704;29;20481;-75
2021/05/19 08:13:21;;;;;;;3.80;3.60;;;17.30;99.90;;;;;;4934682;29;20989;-76
2021/05/19 08:15:47;;;;;;;4.00;3.90;;;17.20;99.90;;;;;;4934572;29;20461;-76
2021/05/19 08:18:14;;;;;;;5.13;4.93;;;17.10;99.90;;;;;;4934830;29;20781;-75
2021/05/19 08:20:41;;;;;;;5.23;4.93;;;16.60;99.90;;;;;;4934183;29;20943;-76
2021/05/19 08:23:07;;;;;;;4.93;4.57;;;16.10;99.90;;;;;;4934517;29;20559;-76
2021/05/19 08:25:34;;;;;;;4.90;4.70;;;15.60;99.90;;;;;;4935058;29;20560;-74
2021/05/19 08:28:00;;;;;;;4.90;4.50;;;15.50;99.90;;;;;;4934558;29;20458;-73
2021/05/19 08:30:28;;;;;;;4.67;4.37;;;15.40;99.90;;;;;;4933457;29;20493;-73
2021/05/19 08:32:54;;;;;;;4.50;4.10;;;15.40;99.90;;;;;;4934015;29;20489;-73
2021/05/19 08:35:21;;;;;;;4.83;4.40;;;15.30;99.90;;;;;;4933824;29;20801;-73
2021/05/19 08:37:48;;;;;;;4.83;4.53;;;15.40;99.90;;;;;;4934480;29;20469;-72
2021/05/19 08:40:14;;;;;;;5.27;4.87;;;15.40;99.90;;;;;;4933465;29;20469;-73
2021/05/19 08:42:40;;;;;;;3.83;3.63;;;15.50;99.90;;;;;;4932839;29;20473;-73
2021/05/19 08:45:09;;;;;;;3.30;3.20;;;15.60;99.90;;;;;;4933819;29;20469;-72
2021/05/19 08:47:36;;;;;;;3.80;3.60;;;15.30;99.90;;;;;;4933503;29;20468;-72
2021/05/19 08:50:04;;;;;;;3.33;3.13;;;15.00;99.90;;;;;;4933470;29;20517;-72
2021/05/19 08:52:33;;;;;;;3.70;3.60;;;15.00;99.90;;;;;;4933224;29;20493;-72
2021/05/19 08:55:00;;;;;;;3.90;3.70;;;14.90;99.90;;;;;;4933350;29;20472;-72
2021/05/19 08:57:26;;;;;;;3.70;3.60;;;14.90;99.90;;;;;;4932707;29;20476;-75
2021/05/19 08:59:52;;;;;;;3.53;3.43;;;15.00;99.90;;;;;;4933934;29;20844;-73
2021/05/19 09:02:18;;;;;;;3.57;3.47;;;15.20;99.90;;;;;;4933024;29;21069;-72
2021/05/19 09:04:45;;;;;;;3.97;3.77;;;15.40;99.90;;;;;;4933738;29;21147;-72
2021/05/19 09:07:18;;;;;;;4.63;4.43;;;15.40;99.90;;;;;;4933382;29;20485;-74
2021/05/19 09:09:45;;;;;;;4.97;4.77;;;15.30;99.90;;;;;;4935560;29;20524;-73
2021/05/19 09:12:13;;;;;;;4.63;4.40;;;15.10;99.90;;;;;;4931974;29;20494;-72
2021/05/19 09:14:42;;;;;;;5.03;4.80;;;15.10;99.90;;;;;;4933433;29;20469;-72
2021/05/19 09:17:23;;;;;;;4.90;4.40;;;15.10;99.90;;;;;;4933126;29;20466;-74
2021/05/19 09:19:51;;;;;;;4.63;4.43;;;15.10;99.90;;;;;;4933726;29;20482;-74
2021/05/19 09:22:22;;;;;;;4.80;4.60;;;15.30;99.90;;;;;;4932884;29;20511;-74
2021/05/19 09:24:50;;;;;;;4.47;4.17;;;15.50;99.90;;;;;;4933404;29;20544;-73
2021/05/19 09:27:16;;;;;;;4.33;4.13;;;15.60;99.90;;;;;;4931970;29;20815;-72
2021/05/19 09:29:45;;;;;;;4.00;3.80;;;15.80;99.90;;;;;;4933204;29;20465;-72
2021/05/19 09:32:14;;;;;;;4.30;4.00;;;15.80;99.90;;;;;;4932517;29;20532;-72
2021/05/19 09:34:41;;;;;;;4.17;3.97;;;15.80;99.90;;;;;;4933497;29;20477;-72
2021/05/19 09:37:33;;;;;;;5.03;4.83;;;15.90;99.90;;;;;;4933357;29;20842;-73
2021/05/19 09:40:01;;;;;;;4.10;4.00;;;16.00;99.90;;;;;;4915574;29;20835;-72
2021/05/19 09:42:42;;;;;;;4.77;4.57;;;15.90;99.90;;;;;;4935328;28;20920;-71
2021/05/19 09:45:20;;;;;;;5.30;4.57;;;16.00;99.90;;;;;;4937190;29;20961;-71
2021/05/19 09:47:47;;;;;;;5.20;4.90;;;16.10;99.90;;;;;;4936929;29;20468;-73
2021/05/19 09:50:15;;;;;;;4.97;4.67;;;16.20;99.90;;;;;;4937364;29;20457;-73
2021/05/19 09:53:02;;;;;;;4.33;4.13;;;16.30;99.90;;;;;;4936962;29;20477;-73
2021/05/19 09:55:29;;;;;;;4.07;3.97;;;16.30;99.90;;;;;;4937568;29;20484;-73
2021/05/19 09:57:55;;;;;;;3.73;3.63;;;16.40;99.90;;;;;;4937769;29;20512;-72
2021/05/19 10:00:24;;;;;;;4.00;3.90;;;16.50;99.90;;;;;;4937296;29;20465;-72
2021/05/19 10:02:51;;;;;;;3.87;3.67;;;16.30;99.90;;;;;;4937725;29;20504;-70
2021/05/19 10:05:21;;;;;;;3.93;3.60;;;16.30;99.90;;;;;;4937058;29;20465;-70
2021/05/19 10:07:48;;;;;;;3.43;3.33;;;16.20;99.90;;;;;;4936850;29;20473;-70
2021/05/19 10:10:14;;;;;;;3.80;3.70;;;16.10;99.90;;;;;;4936371;29;20457;-70
2021/05/19 10:12:44;;;;;;;3.67;3.40;;;16.10;99.90;;;;;;4935777;29;20487;-70
2021/05/19 10:15:13;;;;;;;3.87;3.67;;;16.00;99.90;;;;;;4936494;29;20461;-71
2021/05/19 10:17:42;;;;;;;4.03;3.83;;;15.90;99.90;;;;;;4936759;29;20465;-71
2021/05/19 10:20:13;;;;;;;3.33;3.23;;;15.70;99.90;;;;;;4936134;29;20461;-71
2021/05/19 10:22:45;;;;;;;3.30;3.20;;;15.70;99.90;;;;;;4937171;29;20461;-75
2021/05/19 10:25:32;;;;;;;3.10;2.90;;;15.70;99.90;;;;;;4939520;29;20773;-72
2021/05/19 10:28:02;;;;;;;2.67;2.60;;;15.70;99.90;;;;;;4936981;29;20836;-72
2021/05/19 10:30:43;;;;;;;3.03;2.90;;;15.90;99.90;;;;;;4937044;29;20821;-72
2021/05/19 10:33:44;;;;;;;3.17;2.97;;;16.00;99.90;;;;;;4937445;29;20521;-71
2021/05/19 10:36:35;;;;;;;3.03;2.93;;;16.40;99.90;;;;;;4934336;29;20490;-71
2021/05/19 10:39:20;;;;;;;3.27;3.17;;;16.30;99.90;;;;;;4922137;29;20880;-72
2021/05/19 10:41:48;;;;;;;3.53;3.27;;;16.10;99.90;;;;;;4924504;29;20485;-71
2021/05/19 10:44:17;;;;;;;2.83;2.83;;;16.00;99.90;;;;;;4938433;29;20469;-72
2021/05/19 10:47:08;;;;;;;3.03;2.90;;;16.00;99.90;;;;;;4937718;29;20470;-72
2021/05/19 10:50:17;;;;;;;3.23;3.03;;;16.10;99.90;;;;;;4923027;29;20556;-72
2021/05/19 10:58:38;;;;;;;3.10;2.90;;;16.30;99.90;;;;;;4936989;29;20561;-71
2021/05/19 11:01:07;;;;;;;3.10;2.87;;;16.10;99.90;;;;;;4936469;29;20493;-71
2021/05/19 11:03:33;;;;;;;3.30;3.10;;;16.10;99.90;;;;;;4936684;29;20466;-71
2021/05/19 11:06:10;;;;;;;2.87;2.77;;;16.10;99.90;;;;;;4936612;29;20466;-71
2021/05/19 11:08:38;;;;;;;3.23;3.13;;;16.10;99.90;;;;;;4936791;29;20473;-72
2021/05/19 11:11:27;;;;;;;3.23;3.07;;;16.10;99.90;;;;;;4934752;29;21005;-69
2021/05/19 11:14:22;;;;;;;2.83;2.63;;;16.10;99.90;;;;;;4935080;29;20528;-69
2021/05/19 11:16:57;;;;;;;2.73;2.73;;;16.20;99.90;;;;;;4934287;29;20468;-72
2021/05/19 11:19:32;;;;;;;2.50;2.47;;;16.30;99.90;;;;;;4935113;29;20476;-70
2021/05/19 11:22:09;;;;;;;2.47;2.47;;;16.70;99.90;;;;;;4929364;29;20489;-71
2021/05/19 11:24:56;;;;;;;3.00;2.90;;;17.00;99.90;;;;;;4934080;29;20469;-70
2021/05/19 11:27:25;;;;;;;2.30;2.23;;;17.40;99.90;;;;;;4930903;29;20565;-71
2021/05/19 11:29:51;;;;;;;2.97;2.77;;;17.50;99.90;;;;;;4934571;29;20527;-71
2021/05/19 11:32:21;;;;;;;2.90;2.80;;;17.60;99.90;;;;;;4931592;29;20556;-72
2021/05/19 11:34:48;;;;;;;2.47;2.40;;;17.50;99.90;;;;;;4934761;29;20473;-73
2021/05/19 11:37:16;;;;;;;2.70;2.50;;;17.60;99.90;;;;;;4934901;29;21014;-72
2021/05/19 11:39:45;;;;;;;2.40;2.40;;;17.70;99.90;;;;;;4934742;29;20473;-73
2021/05/19 11:42:15;;;;;;;2.43;2.30;;;17.80;99.90;;;;;;4933961;29;20489;-73
2021/05/19 11:44:46;;;;;;;2.27;2.17;;;17.80;99.90;;;;;;4939019;29;20509;-72
2021/05/19 11:47:12;;;;;;;2.03;2.03;;;17.60;99.90;;;;;;4939027;29;20465;-72
2021/05/19 11:49:39;;;;;;;3.00;2.80;;;17.60;99.90;;;;;;4937766;29;20531;-73
2021/05/19 11:52:05;;;;;;;2.43;2.33;;;17.40;99.90;;;;;;4936814;29;20481;-73
2021/05/19 11:54:40;;;;;;;2.50;2.50;;;17.30;99.90;;;;;;4932632;29;20497;-73
2021/05/19 11:57:07;;;;;;;2.97;2.67;;;17.30;99.90;;;;;;4937365;29;20521;-73
2021/05/19 11:59:35;;;;;;;2.07;1.90;;;17.30;99.90;;;;;;4934272;29;20544;-72
2021/05/19 12:02:05;;;;;;;2.10;2.00;;;17.30;99.90;;;;;;4936728;29;20489;-75
2021/05/19 12:04:33;;;;;;;3.33;2.37;;;17.20;99.90;;;;;;4938066;29;20473;-74
2021/05/19 12:07:02;;;;;;;2.60;2.50;;;17.40;99.90;;;;;;4940757;29;20521;-74
2021/05/19 12:09:30;;;;;;;1.87;1.87;;;17.50;99.90;;;;;;4939726;29;20538;-76
2021/05/19 12:12:05;;;;;;;2.00;2.00;;;17.60;99.90;;;;;;4938740;29;20499;-72
2021/05/19 12:14:31;;;;;;;2.60;2.60;;;17.70;99.90;;;;;;4937355;29;20961;-75
2021/05/19 12:16:58;;;;;;;2.10;2.10;;;17.60;99.90;;;;;;4939478;29;20553;-75
2021/05/19 12:19:26;;;;;;;2.10;2.00;;;17.60;99.90;;;;;;4938834;29;20478;-76
2021/05/19 12:22:06;;;;;;;2.53;2.43;;;17.50;99.90;;;;;;4934860;29;20996;-73
2021/05/19 12:24:33;;;;;;;2.03;1.97;;;17.40;99.90;;;;;;4930965;29;20465;-74
2021/05/19 12:27:00;;;;;;;2.57;2.37;;;17.20;99.90;;;;;;4934251;29;20470;-75
2021/05/19 12:29:39;;;;;;;2.87;2.67;;;17.10;99.90;;;;;;4937265;29;20532;-76
2021/05/19 12:32:14;;;;;;;1.73;1.73;;;16.80;99.90;;;;;;4935495;29;20509;-76
2021/05/19 12:34:40;;;;;;;1.60;1.50;;;16.60;99.90;;;;;;4937050;29;20469;-77
2021/05/19 12:37:07;;;;;;;1.70;1.70;;;16.60;99.90;;;;;;4938378;29;20567;-76
2021/05/19 12:39:35;;;;;;;1.60;1.60;;;16.60;99.90;;;;;;4936564;29;20469;-76
2021/05/19 12:42:14;;;;;;;1.40;1.40;;;16.60;99.90;;;;;;4937361;29;20524;-76
2021/05/19 12:44:41;;;;;;;1.10;1.10;;;16.50;99.90;;;;;;4945249;29;20480;-75
2021/05/19 12:47:09;;;;;;;1.90;1.90;;;16.50;99.90;;;;;;4943643;29;20458;-76
2021/05/19 12:49:38;;;;;;;2.00;2.00;;;16.60;99.90;;;;;;4941020;29;20537;-76
2021/05/19 12:52:17;;;;;;;2.07;1.97;;;16.70;99.90;;;;;;4937690;29;20548;-72
2021/05/19 12:54:48;;;;;;;1.40;1.40;;;16.90;99.90;;;;;;4939095;29;20628;-72
2021/05/19 12:57:18;;;;;;;1.23;1.23;;;17.00;99.90;;;;;;4938404;29;20541;-72
2021/05/19 12:59:54;;;;;;;1.43;1.43;;;17.10;99.90;;;;;;4934046;29;20477;-72
2021/05/19 13:02:23;;;;;;;1.60;1.60;;;17.10;99.90;;;;;;4932654;29;20489;-73
2021/05/19 13:04:52;;;;;;;2.13;1.50;;;17.00;99.90;;;;;;4933785;29;20469;-71
2021/05/19 13:07:22;;;;;;;1.40;1.40;;;16.80;99.90;;;;;;4933148;29;20465;-71
2021/05/19 13:10:09;;;;;;;1.40;1.37;;;16.60;99.90;;;;;;4933713;29;20454;-74
2021/05/19 13:12:51;;;;;;;1.20;1.20;;;16.50;99.90;;;;;;4929898;29;20585;-72
2021/05/19 13:15:28;;;;;;;0.93;0.93;;;16.30;99.90;;;;;;4935890;29;20477;-73
2021/05/19 13:18:00;;;;;;;2.03;1.00;;;16.20;99.90;;;;;;4937193;29;21020;-72
2021/05/19 13:20:28;;;;;;;1.00;1.00;;;15.80;99.90;;;;;;4936809;29;20513;-71
2021/05/19 13:23:00;;;;;;;1.10;0.97;;;15.60;99.90;;;;;;4936542;29;20461;-71
2021/05/19 13:25:27;;;;;;;1.17;0.80;;;15.40;99.90;;;;;;4936575;29;20471;-72
2021/05/19 13:27:53;;;;;;;0.97;0.97;;;15.40;99.90;;;;;;4936490;29;20466;-72
2021/05/19 13:30:23;;;;;;;1.10;1.10;;;15.40;99.90;;;;;;4937003;29;20489;-73
2021/05/19 13:32:58;;;;;;;1.10;1.10;;;15.40;99.90;;;;;;4936800;29;20596;-74
2021/05/19 13:38:19;;;;;;;1.00;1.00;;;15.50;99.90;;;;;;4923876;29;20508;-73
2021/05/19 13:40:45;;;;;;;0.90;0.90;;;15.50;99.90;;;;;;4936657;29;20524;-73
2021/05/19 13:43:11;;;;;;;0.90;0.90;;;15.70;99.90;;;;;;4936344;29;20548;-73
2021/05/19 13:45:38;;;;;;;0.90;0.90;;;15.90;99.90;;;;;;4936990;29;20568;-76
2021/05/19 13:48:05;;;;;;;0.83;0.83;;;16.10;99.90;;;;;;4938618;29;20528;-76
2021/05/19 13:50:32;;;;;;;1.10;1.10;;;16.30;99.90;;;;;;4938006;29;21420;-73
2021/05/19 13:52:58;;;;;;;1.03;0.90;;;16.60;99.90;;;;;;4939798;29;20568;-75
2021/05/19 13:55:25;;;;;;;0.87;0.87;;;16.80;99.90;;;;;;4937956;29;20465;-75
2021/05/19 13:57:51;;;;;;;0.80;0.80;;;17.00;99.90;;;;;;4938643;29;20907;-74
2021/05/19 14:00:18;;;;;;;1.43;0.97;;;17.20;99.90;;;;;;4937938;29;20458;-74
2021/05/19 14:02:48;;;;;;;0.73;0.73;;;17.20;99.90;;;;;;4933997;29;20458;-74
2021/05/19 14:05:15;;;;;;;0.80;0.80;;;17.30;99.90;;;;;;4927709;29;20517;-73
2021/05/19 14:07:41;;;;;;;0.90;0.90;;;17.40;99.90;;;;;;4936055;29;20866;-73
2021/05/19 14:10:08;;;;;;;1.00;1.00;;;17.40;98.20;;;;;;4938391;29;20484;-73
2021/05/19 14:12:37;;;;;;;1.40;1.30;;;17.50;98.00;;;;;;4935423;29;20576;-71
2021/05/19 14:15:11;;;;;;;1.30;1.30;;;17.60;98.80;;;;;;4937120;29;20471;-70
2021/05/19 14:20:46;;;;;;;1.50;1.40;;;17.70;98.20;;;;;;4936231;29;20500;-70
2021/05/19 14:28:42;;;;;;;1.70;1.60;;;17.50;99.60;;;;;;4936248;29;20512;-71
2021/05/19 14:31:08;;;;;;;1.50;1.47;;;17.60;99.50;;;;;;4936281;29;20489;-71
2021/05/19 14:33:34;;;;;;;1.67;1.57;;;17.60;99.40;;;;;;4937306;29;20501;-70
2021/05/19 15:00:53;;;;;;;1.60;1.60;;;17.70;99.90;;;;;;4978126;23;20623;-72
2021/05/19 15:03:20;;;;;;;1.40;1.30;;;17.50;99.90;;;;;;4956378;28;20469;-73
2021/05/19 15:05:46;;;;;;;1.33;1.33;;;17.40;99.90;;;;;;4956091;29;20468;-73
2021/05/19 15:08:12;;;;;;;1.70;1.60;;;17.40;99.90;;;;;;4955815;29;20553;-73
2021/05/19 15:10:39;;;;;;;1.20;1.20;;;17.30;99.90;;;;;;4951904;28;20559;-74
2021/05/19 15:13:05;;;;;;;1.03;1.03;;;17.10;99.90;;;;;;4946566;29;20485;-74
2021/05/19 15:15:32;;;;;;;1.57;1.47;;;17.10;99.90;;;;;;4952474;29;20527;-74
2021/05/19 15:17:59;;;;;;;1.57;1.57;;;17.00;99.90;;;;;;4953738;29;20468;-74
2021/05/19 15:20:26;;;;;;;1.30;1.30;;;16.90;99.90;;;;;;4952217;28;20477;-74
2021/05/19 15:22:54;;;;;;;1.40;1.40;;;16.80;99.90;;;;;;4952479;29;20519;-74
2021/05/19 15:25:20;;;;;;;2.20;1.57;;;16.60;99.90;;;;;;4954652;29;20469;-74
2021/05/19 15:27:46;;;;;;;2.37;2.30;;;16.50;99.90;;;;;;4953632;29;20984;-72
2021/05/19 15:30:13;;;;;;;2.80;2.70;;;16.20;99.90;;;;;;4944487;28;20472;-71
2021/05/19 15:32:39;;;;;;;4.37;4.07;;;15.90;99.90;;;;;;4950668;29;20602;-72
2021/05/19 15:35:08;;;;;;;5.33;4.50;;;15.50;99.90;;;;;;4942425;29;20477;-72
2021/05/19 15:37:34;;;;;;;6.90;4.95;;;14.20;99.90;;;;;;4952591;28;20540;-72
2021/05/19 15:40:00;;;;;;;6.78;4.75;;;13.20;99.90;;;;;;4953194;29;20231;-72
2021/05/19 15:42:26;;;;;;;4.80;4.50;;;12.70;99.90;;;;;;4948446;28;20225;-72
2021/05/19 15:44:54;;;;;;;4.93;4.50;;;12.30;99.90;;;;;;4953765;29;20236;-72
2021/05/19 15:47:20;;;;;;;5.10;4.80;;;12.00;99.90;;;;;;4953141;29;20217;-71
2021/05/19 15:49:47;;;;;;;6.22;5.65;;;12.10;99.90;;;;;;4953595;29;20213;-71
2021/05/19 15:52:14;;;;;;;7.40;6.75;;;12.10;99.90;;;;;;4951434;28;20229;-71
2021/05/19 15:54:40;;;;;;;5.80;5.40;;;12.10;99.90;;;;;;4953223;29;20628;-71
2021/05/19 15:57:06;;;;;;;6.72;6.22;;;12.10;99.90;;;;;;4952415;29;20209;-73
2021/05/19 15:59:33;;;;;;;6.10;5.78;;;12.00;99.90;;;;;;4946125;28;20622;-72
2021/05/19 16:02:00;;;;;;;8.10;7.40;;;12.00;99.90;;;;;;4951541;28;20273;-72
2021/05/19 16:04:26;;;;;;;8.65;7.85;;;12.00;99.90;;;;;;4943802;28;20284;-70
2021/05/19 16:06:56;;;;;;;7.53;6.95;;;12.10;99.90;;;;;;4952733;29;20216;-71
2021/05/19 16:09:23;;;;;;;6.40;6.00;;;12.20;99.90;;;;;;4944500;28;20241;-71
2021/05/19 16:11:51;;;;;;;6.90;6.45;;;12.30;99.90;;;;;;4950357;29;20240;-71
2021/05/19 16:14:17;;;;;;;7.18;6.70;;;12.20;99.90;;;;;;4951779;29;20205;-71
2021/05/19 16:16:43;;;;;;;7.95;7.25;;;12.20;99.90;;;;;;4952537;29;20205;-71
2021/05/19 16:19:10;;;;;;;7.50;6.95;;;12.20;99.90;;;;;;4949764;29;20210;-71
2021/05/19 16:21:36;;;;;;;8.18;7.47;;;12.40;99.90;;;;;;4952999;28;20247;-70
2021/05/19 16:24:04;;;;;;;8.23;7.70;;;12.60;99.90;;;;;;4951289;29;20201;-70
2021/05/19 16:26:31;;;;;;;8.00;7.50;;;12.80;99.90;;;;;;4947777;28;20688;-70
2021/05/19 16:29:04;;;;;;;7.70;7.20;;;12.90;99.90;;;;;;4948542;29;20256;-71
2021/05/19 16:31:31;;;;;;;7.45;6.95;;;12.90;99.90;;;;;;4951689;29;20237;-70
2021/05/19 16:34:26;;;;;;;6.70;6.30;;;13.00;99.90;;;;;;4948968;28;20260;-71
2021/05/19 16:36:59;;;;;;;7.65;7.15;;;13.10;99.90;;;;;;4950145;29;20200;-71
2021/05/19 16:39:27;;;;;;;7.10;6.60;;;13.20;99.90;;;;;;4949420;28;20221;-71
2021/05/19 16:41:57;;;;;;;7.82;7.10;;;13.20;99.90;;;;;;4952403;28;20361;-71
2021/05/19 16:44:24;;;;;;;7.63;7.18;;;13.40;99.90;;;;;;4952269;29;20212;-68
2021/05/19 16:46:52;;;;;;;8.50;7.80;;;13.40;99.90;;;;;;4945883;29;20216;-69
2021/05/19 16:49:18;;;;;;;7.10;6.70;;;13.40;99.90;;;;;;4943465;29;20216;-68
2021/05/19 16:51:49;;;;;;;7.10;6.60;;;13.50;99.90;;;;;;4947952;29;20217;-68
2021/05/19 16:54:17;;;;;;;6.03;5.55;;;13.60;99.90;;;;;;4938204;29;20217;-68
2021/05/19 16:56:44;;;;;;;5.57;5.32;;;13.60;99.90;;;;;;4949079;29;20208;-69
2021/05/19 16:59:12;;;;;;;5.80;5.40;;;13.60;99.90;;;;;;4953224;28;20217;-68
2021/05/19 17:07:11;;;;;;;6.05;5.65;;;13.60;99.90;;;;;;4952346;29;20791;-69
2021/05/19 17:09:40;;;;;;;5.30;5.10;;;13.70;99.90;;;;;;4951524;29;20213;-70
2021/05/19 17:12:07;;;;;;;5.07;4.82;;;13.80;99.90;;;;;;4948559;28;20235;-70
2021/05/19 17:14:34;;;;;;;4.82;4.63;;;13.80;99.90;;;;;;4951376;29;20662;-71
2021/05/19 17:17:02;;;;;;;4.65;4.45;;;13.90;99.90;;;;;;4941042;29;20214;-69
2021/05/19 17:19:32;;;;;;;7.22;6.78;;;14.00;99.90;;;;;;4940604;29;20225;-69
2021/05/19 17:21:59;;;;;;;4.28;4.07;;;14.10;99.90;;;;;;4949159;29;20631;-69
2021/05/19 17:24:26;;;;;;;5.50;4.03;;;14.10;99.90;;;;;;4952222;29;20212;-70
2021/05/19 17:26:52;;;;;;;3.93;3.83;;;14.10;99.90;;;;;;4951770;29;21283;-70
2021/05/19 17:29:18;;;;;;;4.23;3.93;;;14.00;99.90;;;;;;4952422;29;20468;-70
2021/05/19 17:31:45;;;;;;;4.38;4.13;;;14.00;99.90;;;;;;4952516;28;20543;-70
2021/05/19 17:34:12;;;;;;;3.87;3.73;;;14.00;99.90;;;;;;4951604;29;20209;-71
2021/05/19 17:36:39;;;;;;;3.60;3.50;;;13.90;99.90;;;;;;4952196;29;20475;-71
2021/05/19 17:39:06;;;;;;;4.40;4.20;;;13.90;99.90;;;;;;4952303;28;20852;-71
2021/05/19 17:41:33;;;;;;;6.65;6.25;;;13.90;99.90;;;;;;4952047;29;20237;-72